createdAt,value
2017-07-17T00:01:52.862Z,101022.36
2017-07-17T00:04:20.291Z,101023.27
2017-07-17T00:06:48.027Z,101019.99
2017-07-17T00:09:15.466Z,101016.85
2017-07-17T00:11:42.879Z,101021.06
2017-07-17T00:14:10.300Z,101010.44
2017-07-17T00:16:37.735Z,101010.91
2017-07-17T00:19:05.153Z,101007.92
2017-07-17T00:21:32.574Z,101010.76
2017-07-17T00:24:00.002Z,101008.98
2017-07-17T00:26:27.488Z,101009.97
2017-07-17T00:28:54.863Z,101008.18
2017-07-17T00:31:22.291Z,101002.86
2017-07-17T00:33:49.723Z,101004.57
2017-07-17T00:36:17.154Z,101006.85
2017-07-17T00:38:44.583Z,101010.52
2017-07-17T00:41:12.019Z,101005.92
2017-07-17T00:43:39.469Z,101001.58
2017-07-17T00:46:06.883Z,101001.58
2017-07-17T00:48:34.324Z,101002.70
2017-07-17T00:51:01.755Z,100998.36
2017-07-17T00:53:29.174Z,100995.95
2017-07-17T00:55:56.616Z,100994.23
2017-07-17T00:58:24.030Z,100993.45
2017-07-17T01:00:51.459Z,100989.58
2017-07-17T01:03:18.914Z,100990.56
2017-07-17T01:05:46.343Z,100990.83
2017-07-17T01:08:13.780Z,100991.55
2017-07-17T01:10:41.211Z,100992.20
2017-07-17T01:13:08.627Z,100997.95
2017-07-17T01:15:36.111Z,100991.22
2017-07-17T01:18:03.525Z,100996.23
2017-07-17T01:20:30.959Z,100993.17
2017-07-17T01:22:58.378Z,100987.89
2017-07-17T01:25:25.822Z,100992.33
2017-07-17T01:27:53.243Z,100993.23
2017-07-17T01:30:20.669Z,100998.81
2017-07-17T01:32:48.101Z,100990.28
2017-07-17T01:35:15.510Z,100990.19
2017-07-17T01:37:42.952Z,100986.01
2017-07-17T01:40:10.379Z,100986.06
2017-07-17T01:42:37.830Z,100984.78
2017-07-17T01:45:05.262Z,100991.31
2017-07-17T01:47:32.673Z,100985.82
2017-07-17T01:50:00.127Z,100983.31
2017-07-17T01:52:27.539Z,100981.33
2017-07-17T01:54:54.969Z,100981.20
2017-07-17T01:57:22.431Z,100975.97
2017-07-17T01:59:49.874Z,100985.36
2017-07-17T02:02:17.307Z,100975.29
2017-07-17T02:04:44.723Z,100973.28
2017-07-17T02:07:12.193Z,100971.84
2017-07-17T02:09:39.873Z,100975.62
2017-07-17T02:12:07.315Z,100969.70
2017-07-17T02:14:34.736Z,100979.45
2017-07-17T02:17:02.175Z,100969.20
2017-07-17T02:19:29.610Z,100970.05
2017-07-17T02:21:57.022Z,100977.73
2017-07-17T02:24:24.454Z,100968.59
2017-07-17T02:26:51.879Z,100971.58
2017-07-17T02:29:19.306Z,100969.44
2017-07-17T02:31:46.767Z,100973.41
2017-07-17T02:34:14.223Z,100976.63
2017-07-17T02:36:41.646Z,100968.38
2017-07-17T02:39:09.070Z,100972.06
2017-07-17T02:41:36.503Z,100972.20
2017-07-17T02:44:03.930Z,100972.44
2017-07-17T02:46:31.355Z,100965.57
2017-07-17T02:48:58.782Z,100967.53
2017-07-17T02:51:26.227Z,100968.78
2017-07-17T02:53:53.646Z,100966.55
2017-07-17T02:56:21.066Z,100968.79
2017-07-17T02:58:48.493Z,100966.27
2017-07-17T03:01:15.906Z,100968.67
2017-07-17T03:03:43.326Z,100967.05
2017-07-17T03:06:10.741Z,100967.47
2017-07-17T03:08:38.194Z,100964.22
2017-07-17T03:11:05.627Z,100964.91
2017-07-17T03:13:33.094Z,100967.99
2017-07-17T03:16:00.531Z,100972.47
2017-07-17T03:18:27.958Z,100975.55
2017-07-17T03:20:55.386Z,100969.58
2017-07-17T03:23:22.803Z,100971.72
2017-07-17T03:25:50.283Z,100977.00
2017-07-17T03:28:17.722Z,100979.42
2017-07-17T03:30:45.139Z,100969.80
2017-07-17T03:33:12.878Z,100971.16
2017-07-17T03:35:40.307Z,100966.97
2017-07-17T03:38:07.737Z,100972.94
2017-07-17T03:40:35.482Z,100978.16
2017-07-17T03:43:02.941Z,100977.41
2017-07-17T03:45:30.377Z,100973.77
2017-07-17T03:47:57.946Z,100967.42
2017-07-17T03:50:25.370Z,100967.53
2017-07-17T03:52:52.801Z,100969.63
2017-07-17T03:55:20.509Z,100970.03
2017-07-17T03:57:47.950Z,100966.91
2017-07-17T04:00:15.374Z,100969.85
2017-07-17T04:02:43.011Z,100968.27
2017-07-17T04:05:10.426Z,100970.59
2017-07-17T04:07:37.842Z,100974.28
2017-07-17T04:10:05.471Z,100967.99
2017-07-17T04:12:32.890Z,100975.73
2017-07-17T04:15:00.296Z,100973.59
2017-07-17T04:17:27.871Z,100971.69
2017-07-17T04:19:55.278Z,100975.38
2017-07-17T04:22:22.998Z,100978.06
2017-07-17T04:24:50.742Z,100982.12
2017-07-17T04:27:18.206Z,100985.43
2017-07-17T04:29:45.627Z,100983.15
2017-07-17T04:32:13.115Z,100986.18
2017-07-17T04:34:40.631Z,100982.59
2017-07-17T04:37:08.028Z,100983.81
2017-07-17T04:39:35.919Z,100984.12
2017-07-17T04:42:03.345Z,100982.22
2017-07-17T04:44:30.777Z,100983.28
2017-07-17T04:46:58.354Z,100983.19
2017-07-17T04:49:25.781Z,100979.87
2017-07-17T04:51:53.206Z,100984.46
2017-07-17T04:54:21.011Z,100989.91
2017-07-17T04:56:48.445Z,100988.05
2017-07-17T04:59:15.858Z,100988.79
2017-07-17T05:01:44.591Z,100984.34
2017-07-17T05:04:12.006Z,100987.90
2017-07-17T05:06:39.459Z,100981.03
2017-07-17T05:09:07.045Z,100976.77
2017-07-17T05:11:34.469Z,100975.94
2017-07-17T05:14:01.886Z,100979.90
2017-07-17T05:16:29.744Z,100977.47
2017-07-17T05:18:57.190Z,100979.94
2017-07-17T05:21:24.594Z,100984.08
2017-07-17T05:23:52.043Z,100986.59
2017-07-17T05:26:19.485Z,100988.77
2017-07-17T05:28:46.936Z,100987.14
2017-07-17T05:31:14.439Z,100987.18
2017-07-17T05:33:41.863Z,100989.48
2017-07-17T05:36:09.283Z,100989.27
2017-07-17T05:38:37.068Z,100982.98
2017-07-17T05:41:04.508Z,100994.68
2017-07-17T05:43:31.931Z,100994.55
2017-07-17T05:45:59.403Z,100993.47
2017-07-17T05:48:26.837Z,101000.09
2017-07-17T05:50:54.243Z,101006.34
2017-07-17T05:53:21.801Z,101002.29
2017-07-17T05:55:49.232Z,101003.13
2017-07-17T05:58:16.647Z,101007.84
2017-07-17T06:00:44.494Z,101015.03
2017-07-17T06:03:11.924Z,101013.13
2017-07-17T06:05:39.347Z,101016.36
2017-07-17T06:08:07.332Z,101013.86
2017-07-17T06:10:34.773Z,101016.28
2017-07-17T06:13:02.205Z,101015.73
2017-07-17T06:15:29.709Z,101018.02
2017-07-17T06:17:57.150Z,101026.66
2017-07-17T06:20:24.594Z,101025.40
2017-07-17T06:22:52.217Z,101029.77
2017-07-17T06:25:19.647Z,101028.45
2017-07-17T06:27:47.071Z,101034.52
2017-07-17T06:30:14.543Z,101038.08
2017-07-17T06:32:41.966Z,101039.16
2017-07-17T06:35:09.387Z,101040.83
2017-07-17T06:37:36.968Z,101036.95
2017-07-17T06:40:04.386Z,101039.55
2017-07-17T06:42:31.828Z,101040.77
2017-07-17T06:44:59.371Z,101043.60
2017-07-17T06:47:26.786Z,101051.91
2017-07-17T06:49:54.233Z,101052.27
2017-07-17T06:52:21.710Z,101056.31
2017-07-17T06:54:49.134Z,101050.44
2017-07-17T06:57:16.550Z,101049.57
2017-07-17T06:59:44.299Z,101044.84
2017-07-17T07:02:11.767Z,101048.31
2017-07-17T07:04:39.186Z,101048.64
2017-07-17T07:07:06.709Z,101055.12
2017-07-17T07:09:34.140Z,101057.19
2017-07-17T07:12:01.565Z,101059.31
2017-07-17T07:14:29.096Z,101056.47
2017-07-17T07:16:56.514Z,101051.86
2017-07-17T07:19:23.971Z,101060.06
2017-07-17T07:21:51.820Z,101056.98
2017-07-17T07:24:19.239Z,101059.31
2017-07-17T07:26:46.665Z,101055.31
2017-07-17T07:29:14.295Z,101057.98
2017-07-17T07:31:41.739Z,101054.96
2017-07-17T07:34:09.170Z,101054.54
2017-07-17T07:36:36.903Z,101053.84
2017-07-17T07:39:04.315Z,101058.08
2017-07-17T07:41:31.730Z,101064.46
2017-07-17T07:43:59.311Z,101056.77
2017-07-17T07:46:26.728Z,101059.16
2017-07-17T07:48:54.142Z,101057.81
2017-07-17T07:51:21.896Z,101056.52
2017-07-17T07:53:49.300Z,101054.33
2017-07-17T07:56:16.713Z,101060.34
2017-07-17T07:58:44.507Z,101058.00
2017-07-17T08:01:11.934Z,101062.39
2017-07-17T08:03:39.342Z,101062.71
2017-07-17T08:06:06.809Z,101064.95
2017-07-17T08:08:34.226Z,101062.45
2017-07-17T08:11:01.641Z,101066.14
2017-07-17T08:13:29.251Z,101071.81
2017-07-17T08:15:56.689Z,101069.86
2017-07-17T08:18:24.106Z,101069.16
2017-07-17T08:20:51.674Z,101069.73
2017-07-17T08:23:19.109Z,101078.69
2017-07-17T08:25:46.505Z,101072.30
2017-07-17T08:28:14.187Z,101068.88
2017-07-17T08:30:41.615Z,101078.87
2017-07-17T08:33:09.045Z,101083.98
2017-07-17T08:35:36.977Z,101079.08
2017-07-17T08:38:04.400Z,101079.36
2017-07-17T08:40:31.819Z,101073.45
2017-07-17T08:42:59.656Z,101079.85
2017-07-17T08:45:27.075Z,101076.38
2017-07-17T08:47:54.495Z,101078.46
2017-07-17T08:50:22.132Z,101076.98
2017-07-17T08:52:49.545Z,101076.59
2017-07-17T08:55:16.950Z,101075.80
2017-07-17T08:57:44.697Z,101077.25
2017-07-17T09:00:12.102Z,101079.02
2017-07-17T09:02:39.527Z,101080.44
2017-07-17T09:05:07.000Z,101081.22
2017-07-17T09:07:34.409Z,101080.87
2017-07-17T09:10:01.826Z,101082.83
2017-07-17T09:12:29.263Z,101080.55
2017-07-17T09:14:56.707Z,101085.01
2017-07-17T09:17:24.151Z,101081.27
2017-07-17T09:19:51.595Z,101079.45
2017-07-17T09:22:19.016Z,101082.91
2017-07-17T09:24:46.431Z,101083.22
2017-07-17T09:27:14.180Z,101076.16
2017-07-17T09:29:41.637Z,101074.38
2017-07-17T09:32:09.024Z,101075.55
2017-07-17T09:34:36.631Z,101079.77
2017-07-17T09:37:04.046Z,101078.81
2017-07-17T09:39:31.463Z,101078.95
2017-07-17T09:41:58.902Z,101075.80
2017-07-17T09:44:26.335Z,101075.33
2017-07-17T09:46:53.766Z,101070.80
2017-07-17T09:49:21.251Z,101069.26
2017-07-17T09:51:48.691Z,101076.08
2017-07-17T09:54:16.128Z,101080.05
2017-07-17T09:56:43.593Z,101087.05
2017-07-17T09:59:11.051Z,101084.70
2017-07-17T10:01:38.475Z,101088.87
2017-07-17T10:04:06.278Z,101096.66
2017-07-17T10:06:33.729Z,101097.56
2017-07-17T10:09:01.164Z,101093.23
2017-07-17T10:11:28.652Z,101095.66
2017-07-17T10:13:56.072Z,101095.06
2017-07-17T10:16:23.487Z,101091.39
2017-07-17T10:18:50.957Z,101091.37
2017-07-17T10:21:18.394Z,101093.81
2017-07-17T10:23:45.821Z,101095.84
2017-07-17T10:26:13.445Z,101092.02
2017-07-17T10:28:40.877Z,101101.91
2017-07-17T10:31:08.303Z,101103.12
2017-07-17T10:33:35.972Z,101097.63
2017-07-17T10:36:03.398Z,101102.88
2017-07-17T10:38:30.833Z,101102.92
2017-07-17T10:40:58.444Z,101106.28
2017-07-17T10:43:25.868Z,101111.39
2017-07-17T10:45:53.278Z,101111.63
2017-07-17T10:48:21.092Z,101115.87
2017-07-17T10:50:48.510Z,101114.59
2017-07-17T10:53:15.940Z,101114.11
2017-07-17T10:55:43.408Z,101113.45
2017-07-17T10:58:10.817Z,101110.69
2017-07-17T11:00:38.230Z,101111.28
2017-07-17T11:03:05.682Z,101115.11
2017-07-17T11:05:33.099Z,101114.23
2017-07-17T11:08:00.516Z,101109.86
2017-07-17T11:10:28.219Z,101110.19
2017-07-17T11:12:55.630Z,101106.18
2017-07-17T11:15:23.046Z,101110.61
2017-07-17T11:17:50.529Z,101112.52
2017-07-17T11:20:17.939Z,101115.33
2017-07-17T11:22:45.357Z,101121.17
2017-07-17T11:25:13.170Z,101115.37
2017-07-17T11:27:40.586Z,101124.73
2017-07-17T11:30:08.006Z,101113.55
2017-07-17T11:32:35.538Z,101108.30
2017-07-17T11:35:02.968Z,101106.37
2017-07-17T11:37:30.391Z,101108.99
2017-07-17T11:39:57.967Z,101108.20
2017-07-17T11:42:25.382Z,101103.72
2017-07-17T11:44:52.798Z,101102.75
2017-07-17T11:59:56.843Z,101107.81
2017-07-17T12:02:24.262Z,101104.02
2017-07-17T12:07:18.550Z,101101.83
2017-07-17T12:09:45.965Z,101109.98
2017-07-17T12:12:13.413Z,101106.31
2017-07-17T12:14:40.830Z,101110.34
2017-07-17T12:17:08.246Z,101113.85
2017-07-17T12:19:35.819Z,101109.09
2017-07-17T12:22:03.245Z,101102.17
2017-07-17T12:24:30.659Z,101102.12
2017-07-17T12:26:58.090Z,101095.66
2017-07-17T12:29:25.514Z,101091.74
2017-07-17T12:31:52.942Z,101094.87
2017-07-17T12:34:20.478Z,101093.64
2017-07-17T12:36:47.899Z,101095.00
2017-07-17T12:39:15.324Z,101089.16
2017-07-17T12:41:42.978Z,101088.79
2017-07-17T12:44:10.405Z,101092.32
2017-07-17T12:46:37.819Z,101087.41
2017-07-17T12:49:05.258Z,101080.15
2017-07-17T12:51:32.679Z,101089.13
2017-07-17T12:54:00.107Z,101083.72
2017-07-17T12:56:27.698Z,101085.19
2017-07-17T12:58:55.121Z,101080.33
2017-07-17T13:01:22.544Z,101080.50
2017-07-17T13:03:50.119Z,101082.52
2017-07-17T13:06:17.552Z,101086.11
2017-07-17T13:08:44.974Z,101087.03
2017-07-17T13:11:12.464Z,101075.98
2017-07-17T13:13:39.879Z,101073.28
2017-07-17T13:16:07.303Z,101073.87
2017-07-17T13:18:34.897Z,101072.47
2017-07-17T13:21:02.325Z,101066.77
2017-07-17T13:23:29.756Z,101074.36
2017-07-17T13:25:57.191Z,101077.72
2017-07-17T13:28:24.617Z,101075.67
2017-07-17T13:30:52.046Z,101075.16
2017-07-17T13:33:19.485Z,101072.36
2017-07-17T13:35:46.918Z,101062.95
2017-07-17T13:38:14.340Z,101063.36
2017-07-17T13:40:41.952Z,101063.29
2017-07-17T13:43:09.383Z,101059.46
2017-07-17T13:45:36.832Z,101067.95
2017-07-17T13:48:04.359Z,101059.84
2017-07-17T13:50:31.770Z,101060.90
2017-07-17T13:53:02.447Z,101057.39
2017-07-17T13:55:30.002Z,101063.74
2017-07-17T13:57:57.440Z,101054.61
2017-07-17T14:00:24.884Z,101055.42
2017-07-17T14:02:52.646Z,101051.14
2017-07-17T14:05:20.083Z,101051.04
2017-07-17T14:07:47.542Z,101046.69
2017-07-17T14:10:14.999Z,101050.92
2017-07-17T14:12:42.435Z,101051.66
2017-07-17T14:15:09.856Z,101046.16
2017-07-17T14:17:37.436Z,101051.64
2017-07-17T14:20:04.856Z,101051.39
2017-07-17T14:22:32.276Z,101040.45
2017-07-17T14:24:59.851Z,101038.56
2017-07-17T14:27:27.271Z,101045.09
2017-07-17T14:29:54.687Z,101039.10
2017-07-17T14:32:22.241Z,101041.39
2017-07-17T14:34:49.661Z,101033.81
2017-07-17T14:37:17.115Z,101029.55
2017-07-17T14:39:44.723Z,101030.13
2017-07-17T14:42:12.151Z,101034.95
2017-07-17T14:44:39.567Z,101027.66
2017-07-17T14:47:07.051Z,101030.63
2017-07-17T14:49:34.475Z,101033.48
2017-07-17T14:52:01.900Z,101034.16
2017-07-17T14:54:29.361Z,101030.48
2017-07-17T14:56:56.784Z,101028.58
2017-07-17T14:59:24.202Z,101030.98
2017-07-17T15:01:51.768Z,101026.20
2017-07-17T15:04:19.199Z,101030.13
2017-07-17T15:06:46.620Z,101028.58
2017-07-17T15:09:14.057Z,101024.58
2017-07-17T15:11:41.535Z,101017.67
2017-07-17T15:14:09.060Z,101016.20
2017-07-17T15:16:37.026Z,101015.52
2017-07-17T15:19:04.455Z,101003.94
2017-07-17T15:21:31.886Z,101003.30
2017-07-17T15:23:59.493Z,101007.23
2017-07-17T15:26:26.901Z,101005.34
2017-07-17T15:28:54.354Z,101002.19
2017-07-17T15:31:21.802Z,101002.66
2017-07-17T15:33:49.293Z,101002.09
2017-07-17T15:36:16.746Z,100995.78
2017-07-17T15:38:44.327Z,100994.70
2017-07-17T15:41:11.739Z,100989.05
2017-07-17T15:43:39.189Z,100994.23
2017-07-17T15:46:06.982Z,100989.89
2017-07-17T15:48:35.014Z,100986.76
2017-07-17T15:51:02.431Z,100986.36
2017-07-17T15:53:29.934Z,100987.23
2017-07-17T15:55:57.375Z,100982.02
2017-07-17T15:58:24.871Z,100985.83
2017-07-17T16:00:52.351Z,100980.58
2017-07-17T16:03:19.758Z,100977.41
2017-07-17T16:05:47.182Z,100976.20
2017-07-17T16:08:14.631Z,100971.41
2017-07-17T16:10:42.047Z,100975.67
2017-07-17T16:13:09.459Z,100968.22
2017-07-17T16:15:36.899Z,100967.97
2017-07-17T16:18:04.340Z,100960.73
2017-07-17T16:20:31.751Z,100961.30
2017-07-17T16:22:59.506Z,100954.16
2017-07-17T16:25:26.920Z,100959.41
2017-07-17T16:27:54.334Z,100953.66
2017-07-17T16:30:22.145Z,100942.41
2017-07-17T16:32:49.560Z,100946.07
2017-07-17T16:35:16.975Z,100936.70
2017-07-17T16:37:44.736Z,100939.02
2017-07-17T16:40:12.155Z,100942.60
2017-07-17T16:42:39.567Z,100940.05
2017-07-17T16:45:07.107Z,100943.69
2017-07-17T16:47:34.524Z,100942.80
2017-07-17T16:50:01.939Z,100943.23
2017-07-17T16:52:29.511Z,100943.56
2017-07-17T16:54:56.921Z,100941.20
2017-07-17T16:57:24.334Z,100940.12
2017-07-17T16:59:51.798Z,100940.40
2017-07-17T17:02:19.216Z,100943.38
2017-07-17T17:04:46.622Z,100939.28
2017-07-17T17:07:14.375Z,100940.20
2017-07-17T17:09:41.776Z,100947.91
2017-07-17T17:12:09.187Z,100946.04
2017-07-17T17:14:36.623Z,100935.95
2017-07-17T17:17:04.029Z,100943.98
2017-07-17T17:19:31.451Z,100941.58
2017-07-17T17:21:59.014Z,100935.36
2017-07-17T17:24:26.427Z,100939.25
2017-07-17T17:26:53.830Z,100938.42
2017-07-17T17:29:21.270Z,100931.33
2017-07-17T17:31:48.679Z,100939.44
2017-07-17T17:34:16.099Z,100939.86
2017-07-17T17:36:43.523Z,100935.58
2017-07-17T17:39:10.947Z,100938.77
2017-07-17T17:41:38.386Z,100932.97
2017-07-17T17:44:05.815Z,100933.64
2017-07-17T17:46:33.230Z,100942.22
2017-07-17T17:49:00.648Z,100938.94
2017-07-17T17:51:28.346Z,100939.18
2017-07-17T17:53:55.763Z,100938.77
2017-07-17T17:56:23.179Z,100940.71
2017-07-17T17:58:50.706Z,100941.49
2017-07-17T18:01:18.127Z,100941.02
2017-07-17T18:03:45.541Z,100944.94
2017-07-17T18:06:12.994Z,100943.20
2017-07-17T18:08:40.430Z,100943.09
2017-07-17T18:11:07.876Z,100941.86
2017-07-17T18:13:35.314Z,100942.59
2017-07-17T18:16:02.779Z,100944.47
2017-07-17T18:18:30.183Z,100940.01
2017-07-17T18:20:57.625Z,100940.49
2017-07-17T18:23:25.033Z,100936.72
2017-07-17T18:25:52.447Z,100940.81
2017-07-17T18:28:19.923Z,100938.92
2017-07-17T18:30:47.335Z,100943.74
2017-07-17T18:33:14.746Z,100944.73
2017-07-17T18:35:42.311Z,100938.61
2017-07-17T18:38:09.723Z,100937.52
2017-07-17T18:40:37.159Z,100939.64
2017-07-17T18:43:04.727Z,100933.16
2017-07-17T18:45:32.138Z,100934.95
2017-07-17T18:47:59.555Z,100933.97
2017-07-17T18:50:27.047Z,100937.56
2017-07-17T18:52:54.454Z,100945.05
2017-07-17T18:55:21.858Z,100940.55
2017-07-17T18:57:49.426Z,100946.98
2017-07-17T19:00:16.827Z,100944.67
2017-07-17T19:02:44.234Z,100943.48
2017-07-17T19:05:11.667Z,100940.53
2017-07-17T19:07:39.088Z,100945.73
2017-07-17T19:10:06.495Z,100948.17
2017-07-17T19:12:34.167Z,100941.93
2017-07-17T19:15:01.587Z,100953.65
2017-07-17T19:17:29.015Z,100942.53
2017-07-17T19:19:56.467Z,100948.11
2017-07-17T19:22:23.899Z,100948.63
2017-07-17T19:24:52.190Z,100951.22
2017-07-17T19:27:19.743Z,100943.19
2017-07-17T19:29:47.179Z,100950.77
2017-07-17T19:32:14.592Z,100947.92
2017-07-17T19:34:42.175Z,100951.83
2017-07-17T19:37:09.587Z,100959.96
2017-07-17T19:39:37.044Z,100954.66
2017-07-17T19:42:04.783Z,100963.27
2017-07-17T19:44:32.193Z,100963.17
2017-07-17T19:46:59.614Z,100962.60
2017-07-17T19:49:27.080Z,100965.66
2017-07-17T19:51:54.487Z,100969.98
2017-07-17T19:54:21.940Z,100978.84
2017-07-17T19:56:49.423Z,100977.44
2017-07-17T19:59:16.846Z,100977.27
2017-07-17T20:01:44.292Z,100977.81
2017-07-17T20:04:11.889Z,100976.44
2017-07-17T20:06:39.296Z,100979.02
2017-07-17T20:09:07.667Z,100976.36
2017-07-17T20:11:35.313Z,100981.34
2017-07-17T20:14:02.715Z,100992.20
2017-07-17T20:16:30.161Z,100987.62
2017-07-17T20:18:57.697Z,101000.31
2017-07-17T20:21:25.131Z,100997.19
2017-07-17T20:23:52.554Z,100991.80
2017-07-17T20:26:20.040Z,100989.86
2017-07-17T20:28:47.488Z,100996.73
2017-07-17T20:31:14.910Z,100996.63
2017-07-17T20:33:42.500Z,100994.70
2017-07-17T20:36:09.906Z,100994.53
2017-07-17T20:38:37.323Z,100995.80
2017-07-17T20:41:04.906Z,100987.13
2017-07-17T20:43:32.323Z,100986.98
2017-07-17T20:45:59.734Z,100994.20
2017-07-17T20:48:27.256Z,100989.25
2017-07-17T20:50:54.667Z,100992.70
2017-07-17T20:53:22.073Z,100986.51
2017-07-17T20:55:49.538Z,100983.38
2017-07-17T20:58:16.948Z,100980.48
2017-07-17T21:00:44.346Z,100987.06
2017-07-17T21:03:11.810Z,100983.63
2017-07-17T21:05:39.272Z,100985.86
2017-07-17T21:08:06.692Z,100986.41
2017-07-17T21:10:34.266Z,100988.77
2017-07-17T21:13:01.688Z,100989.78
2017-07-17T21:15:29.116Z,100982.97
2017-07-17T21:17:56.727Z,100981.70
2017-07-17T21:20:24.140Z,100979.59
2017-07-17T21:22:51.564Z,100980.83
2017-07-17T21:25:19.113Z,100979.38
2017-07-17T21:27:46.526Z,100980.53
2017-07-17T21:30:13.946Z,100980.24
2017-07-17T21:32:41.468Z,100973.77
2017-07-17T21:35:08.894Z,100979.84
2017-07-17T21:37:36.323Z,100978.99
2017-07-17T21:40:03.843Z,100977.14
2017-07-17T21:42:31.260Z,100977.69
2017-07-17T21:44:58.670Z,100984.34
2017-07-17T21:47:26.310Z,100984.02
2017-07-17T21:49:53.717Z,100984.45
2017-07-17T21:52:21.135Z,100986.84
2017-07-17T21:54:48.594Z,100992.86
2017-07-17T21:57:16.011Z,100995.02
2017-07-17T21:59:43.425Z,100987.86
2017-07-17T22:02:11.054Z,100991.91
2017-07-17T22:04:38.479Z,100988.76
2017-07-17T22:07:05.907Z,100986.44
2017-07-17T22:09:33.593Z,100984.47
2017-07-17T22:12:01.012Z,100982.91
2017-07-17T22:14:28.428Z,100993.27
2017-07-17T22:16:55.866Z,100988.38
2017-07-17T22:19:23.294Z,100988.94
2017-07-17T22:21:50.705Z,100993.78
2017-07-17T22:24:18.587Z,100985.80
2017-07-17T22:26:46.022Z,100987.14
2017-07-17T22:29:13.429Z,100990.59
2017-07-17T22:31:40.962Z,100985.48
2017-07-17T22:34:08.374Z,100980.63
2017-07-17T22:36:35.797Z,100981.04
2017-07-17T22:39:03.372Z,100984.54
2017-07-17T22:41:30.782Z,100985.16
2017-07-17T22:43:58.194Z,100983.91
2017-07-17T22:46:25.772Z,100983.77
2017-07-17T22:48:53.178Z,100978.59
2017-07-17T22:51:20.601Z,100981.58
2017-07-17T22:53:48.043Z,100983.84
2017-07-17T22:56:15.488Z,100977.01
2017-07-17T22:58:42.906Z,100974.05
2017-07-17T23:01:10.394Z,100974.95
2017-07-17T23:03:37.816Z,100981.36
2017-07-17T23:06:05.227Z,100975.61
2017-07-17T23:08:33.018Z,100973.12
2017-07-17T23:11:00.422Z,100975.31
2017-07-17T23:13:27.834Z,100986.14
2017-07-17T23:15:55.274Z,100980.87
2017-07-17T23:18:22.706Z,100981.48
2017-07-17T23:20:51.498Z,100978.67
2017-07-17T23:23:19.253Z,100972.55
2017-07-17T23:25:46.674Z,100969.72
2017-07-17T23:28:14.092Z,100968.64
2017-07-17T23:30:41.532Z,100966.94
2017-07-17T23:33:08.951Z,100966.20
2017-07-17T23:35:36.363Z,100972.77
2017-07-17T23:38:04.139Z,100969.66
2017-07-17T23:40:31.571Z,100970.75
2017-07-17T23:42:58.978Z,100968.75
2017-07-17T23:45:26.410Z,100965.63
2017-07-17T23:47:53.843Z,100962.23
2017-07-17T23:50:21.304Z,100966.89
2017-07-17T23:52:48.753Z,100967.11
2017-07-17T23:55:16.166Z,100963.33
2017-07-17T23:57:43.581Z,100964.97
